Terminal Aerodrome Forecast
Issued by NWS

Home | Current Version | Previous Version | Text Only | Print | Product List | Glossary Off
Versions: 1 2 3 4 5 6 7 8 9 10 11 12 13 14 15 16 17

000
FTUS43 KICT 160500
TAFHUT
TAF
KHUT 160522Z 1606/1706 16015G21KT P6SM BKN250 WS020/19045KT
     FM161500 20025G35KT P6SM SCT250
     FM161900 23017G26KT P6SM BKN250
     FM170000 34010KT P6SM OVC200=

USA.gov is the U.S. government's official web portal to all federal, state and local government web resources and services.